»·PEaware :: CPZ5735 KLAX-KLAS

CPZ5735 :: KLAX-KLAS

FLIGHT INFORMATION

Flight Status: Arrived
Operator:
Compass Airlines
More flights by this operator :: More flights under this callsign
Pilot: Tom S. (5840)
Aircraft: EMBRAER EMB-170/175
(E170)
More flights by this aircraft type
Origin: KLAX Los Angeles Intl
United States
Destination: KLAS McCarran Intl
United States
More flights between these airports :: More routes between these airports
Route: +ORKCA3 MISEN KEPEC6
File this flight plan on PilotEdge
Remarks:
Altitude:
(Current/Filed)
21,000ft
Speed:
(Current/Filed)
425kts
Departed: 11-Feb-19 01:42 PM
Arrived: 11-Feb-19 02:32 PM
Distance/Time
Traveled:
205nm/0:50
Distance/Time
To Go:
Arrived

Flight Plot

Page will automatically refresh every two minutes.

Flight plan parsing failed; only flown route is shown


Map Options




Map Legend


Flown Route
Filed Route
Departure Airport
Arrival Airport
Navaid (VOR, NDB)
Fix

Horizontal Profiles

Position Reports

Time Latitude Longitude Heading Altitude Ground
Speed
11-Feb-19 13:05 33.941970 -118.405116 82 118ft 0kts
11-Feb-19 13:06 33.941970 -118.405116 82 118ft 0kts
11-Feb-19 13:07 33.941970 -118.405116 82 118ft 0kts
11-Feb-19 13:08 33.941970 -118.405116 82 118ft 0kts
11-Feb-19 13:09 33.941970 -118.405116 82 118ft 0kts
11-Feb-19 13:10 33.941970 -118.405116 82 118ft 0kts
11-Feb-19 13:11 33.941970 -118.405116 82 118ft 0kts
11-Feb-19 13:12 33.941970 -118.405116 82 118ft 0kts
11-Feb-19 13:13 33.941970 -118.405116 82 118ft 0kts
11-Feb-19 13:14 33.941970 -118.405116 82 118ft 0kts
11-Feb-19 13:15 33.941970 -118.405116 82 118ft 0kts
11-Feb-19 13:16 33.941970 -118.405116 82 118ft 0kts
11-Feb-19 13:17 33.941970 -118.405116 82 118ft 0kts
11-Feb-19 13:18 33.941970 -118.405116 82 118ft 0kts
11-Feb-19 13:19 33.941970 -118.405116 82 118ft 0kts
11-Feb-19 13:20 33.941970 -118.405116 82 118ft 0kts
11-Feb-19 13:21 33.941970 -118.405116 82 118ft 0kts
11-Feb-19 13:22 33.941970 -118.405116 82 118ft 0kts
11-Feb-19 13:23 33.941970 -118.405116 82 118ft 0kts
11-Feb-19 13:24 33.941907 -118.405712 82 119ft 2kts
11-Feb-19 13:25 33.941899 -118.405780 82 119ft 0kts
11-Feb-19 13:26 33.941899 -118.405780 82 119ft 0kts
11-Feb-19 13:27 33.941899 -118.405780 82 119ft 0kts
11-Feb-19 13:28 33.941899 -118.405778 83 119ft 0kts
11-Feb-19 13:29 33.941797 -118.405727 171 119ft 0kts
11-Feb-19 13:30 33.941797 -118.405727 171 119ft 0kts
11-Feb-19 13:31 33.941796 -118.405726 171 119ft 0kts
11-Feb-19 13:32 33.939147 -118.404804 91 120ft 17kts
11-Feb-19 13:33 33.939690 -118.399218 83 113ft 21kts
11-Feb-19 13:34 33.940002 -118.395512 111 108ft 10kts
11-Feb-19 13:35 33.939546 -118.392715 83 104ft 19kts
11-Feb-19 13:36 33.940177 -118.386531 83 101ft 19kts
11-Feb-19 13:37 33.940405 -118.383698 105 98ft 0kts
11-Feb-19 13:38 33.940405 -118.383698 105 98ft 0kts
11-Feb-19 13:39 33.940396 -118.383658 106 98ft 0kts
11-Feb-19 13:40 33.940136 -118.383345 160 98ft 2kts
11-Feb-19 13:41 33.938657 -118.391746 263 105ft 106kts
11-Feb-19 13:42 33.931317 -118.440042 264 1464ft 160kts
11-Feb-19 13:43 33.918862 -118.502667 239 2718ft 221kts
11-Feb-19 13:44 33.906179 -118.575339 266 4818ft 238kts
11-Feb-19 13:45 33.855606 -118.585301 113 6977ft 254kts
11-Feb-19 13:46 33.870189 -118.509969 51 9172ft 252kts
11-Feb-19 13:47 33.916580 -118.454628 39 11308ft 263kts
11-Feb-19 13:48 33.965212 -118.385959 53 13577ft 285kts
11-Feb-19 13:49 34.010070 -118.296293 53 14652ft 348kts
11-Feb-19 13:50 34.065615 -118.197041 49 16951ft 369kts
11-Feb-19 13:51 34.125221 -118.093369 48 19594ft 388kts
11-Feb-19 13:52 34.187537 -117.983803 48 22128ft 407kts
11-Feb-19 13:53 34.252436 -117.868185 48 24236ft 425kts
11-Feb-19 13:54 34.319449 -117.748288 48 25262ft 460kts
11-Feb-19 13:55 34.393701 -117.618287 46 25251ft 472kts
11-Feb-19 13:56 34.471448 -117.489739 46 25253ft 473kts
11-Feb-19 13:57 34.548468 -117.360892 46 25254ft 473kts
11-Feb-19 13:58 34.624431 -117.231162 47 25243ft 474kts
11-Feb-19 14:00 34.700813 -117.100764 47 25245ft 474kts
11-Feb-19 14:01 34.776684 -116.971803 47 25262ft 465kts
11-Feb-19 14:02 34.851391 -116.844441 47 25272ft 460kts
11-Feb-19 14:03 34.926722 -116.715751 48 25265ft 470kts
11-Feb-19 14:04 35.000510 -116.584760 49 25266ft 467kts
11-Feb-19 14:05 35.071867 -116.457253 49 24372ft 432kts
11-Feb-19 14:06 35.144299 -116.346362 39 23210ft 421kts
11-Feb-19 14:07 35.228492 -116.245221 39 22007ft 419kts
11-Feb-19 14:08 35.308863 -116.145009 40 20490ft 403kts
11-Feb-19 14:09 35.386218 -116.047274 41 18696ft 397kts
11-Feb-19 14:10 35.461957 -115.951530 41 16970ft 386kts
11-Feb-19 14:11 35.533241 -115.861038 41 15383ft 352kts
11-Feb-19 14:12 35.598279 -115.778345 42 14061ft 321kts
11-Feb-19 14:13 35.657973 -115.703023 42 13142ft 300kts
11-Feb-19 14:14 35.715733 -115.628616 42 13105ft 303kts
11-Feb-19 14:15 35.784176 -115.576160 4 13100ft 291kts
11-Feb-19 14:16 35.864699 -115.569926 359 13069ft 289kts
11-Feb-19 14:16 35.931735 -115.566118 1 13018ft 291kts
11-Feb-19 14:18 35.995699 -115.486751 64 11760ft 290kts
11-Feb-19 14:19 36.023637 -115.397654 67 11044ft 272kts
11-Feb-19 14:20 36.025693 -115.304300 94 10626ft 277kts
11-Feb-19 14:20 36.019838 -115.225604 92 10258ft 273kts
11-Feb-19 14:22 36.012356 -115.116468 92 8471ft 281kts
11-Feb-19 14:23 36.006193 -115.023601 92 7333ft 270kts
11-Feb-19 14:23 36.001251 -114.947062 92 6054ft 255kts
11-Feb-19 14:24 36.000035 -114.866602 57 5017ft 218kts
11-Feb-19 14:25 36.049419 -114.880092 320 5011ft 217kts
11-Feb-19 14:26 36.073446 -114.942240 272 4919ft 209kts
11-Feb-19 14:27 36.073615 -115.004551 272 4011ft 165kts
11-Feb-19 14:28 36.073647 -115.056554 271 3156ft 131kts
11-Feb-19 14:29 36.073655 -115.099898 269 2498ft 123kts
11-Feb-19 14:30 36.073641 -115.140394 270 2084ft 75kts
11-Feb-19 14:31 36.074930 -115.146265 314 2102ft 12kts
11-Feb-19 14:32 36.079413 -115.146744 22 2095ft 0kts
11-Feb-19 14:33 36.079457 -115.146721 22 2095ft 0kts
11-Feb-19 14:34 36.079457 -115.146721 22 2095ft 0kts
11-Feb-19 14:35 36.079457 -115.146721 22 2095ft 0kts

Navigation Log

Ident Type
Flight plan parsing failed, navigation log unavailable